Time;durP1;ratioP1;P1;durP2;ratioP2;P2;SDS_P1;SDS_P2;PMS_P1;PMS_P2;Temp;Humidity;BMP_temperature;BMP_pressure;BME280_temperature;BME280_humidity;BME280_pressure;Samples;Min_cycle;Max_cycle;Signal;HPM_P1;HPM_P2
2022/03/02 00:01:40;;;;;;;37.60;17.23;;;;;;;0.66;59.97;94318.06;5004977;28;20022;-77
2022/03/02 00:04:05;;;;;;;44.03;20.08;;;;;;;0.59;57.93;94311.16;5004867;28;20018;-77
2022/03/02 00:06:31;;;;;;;39.53;18.05;;;;;;;0.52;57.96;94321.00;5004679;28;20022;-77
2022/03/02 00:08:57;;;;;;;38.13;20.15;;;;;;;0.54;58.02;94326.81;5004603;28;20030;-77
2022/03/02 00:11:23;;;;;;;41.83;18.15;;;;;;;0.51;58.08;94314.19;5004805;28;20042;-77
2022/03/02 00:13:48;;;;;;;41.30;18.55;;;;;;;0.49;58.18;94315.44;5004828;28;20038;-77
2022/03/02 00:16:14;;;;;;;42.42;18.77;;;;;;;0.49;58.62;94313.63;5004403;28;20333;-77
2022/03/02 00:18:40;;;;;;;42.05;18.98;;;;;;;0.38;58.87;94312.66;5004605;28;20030;-77
2022/03/02 00:21:06;;;;;;;46.08;19.67;;;;;;;0.16;59.52;94302.09;5004539;28;20037;-77
2022/03/02 00:23:32;;;;;;;38.58;19.25;;;;;;;0.02;60.25;94300.00;5003192;28;20058;-77
2022/03/02 00:25:58;;;;;;;43.15;20.45;;;;;;;-0.21;61.19;94296.47;5004382;28;20320;-77
2022/03/02 00:28:24;;;;;;;39.45;20.50;;;;;;;-0.32;61.95;94300.72;5004595;28;20034;-77
2022/03/02 00:30:49;;;;;;;43.20;19.83;;;;;;;-0.33;62.13;94295.72;5004414;28;20048;-77
2022/03/02 00:33:16;;;;;;;45.95;20.00;;;;;;;-0.35;62.90;94289.91;5004304;28;20667;-77
2022/03/02 00:35:41;;;;;;;35.60;17.70;;;;;;;-0.43;63.05;94288.47;5004152;28;20324;-77
2022/03/02 00:38:10;;;;;;;36.33;18.10;;;;;;;-0.48;63.28;94291.00;5004031;28;20052;-77
2022/03/02 00:40:36;;;;;;;38.63;18.08;;;;;;;-0.59;63.49;94282.16;5003862;28;20065;-77
2022/03/02 00:43:03;;;;;;;43.58;18.48;;;;;;;-0.63;63.71;94283.66;5004238;28;20041;-77
2022/03/02 00:45:29;;;;;;;42.58;17.92;;;;;;;-0.72;62.86;94280.59;5004057;28;20028;-76
2022/03/02 00:47:55;;;;;;;33.40;17.52;;;;;;;-0.83;63.21;94273.56;5003934;28;20026;-77
2022/03/02 00:50:21;;;;;;;43.08;18.60;;;;;;;-0.89;63.45;94269.28;5003978;28;20044;-76
2022/03/02 00:52:47;;;;;;;38.53;18.27;;;;;;;-1.10;64.14;94262.81;5003713;28;20097;-75
2022/03/02 00:55:12;;;;;;;36.25;16.98;;;;;;;-1.29;64.09;94249.06;5003811;28;20030;-75
2022/03/02 00:57:38;;;;;;;36.28;15.85;;;;;;;-1.50;64.77;94255.69;5003898;28;20030;-75
2022/03/02 01:00:05;;;;;;;31.92;16.38;;;;;;;-1.53;64.71;94250.91;5003782;28;20372;-75
2022/03/02 01:02:30;;;;;;;26.27;14.55;;;;;;;-1.67;64.50;94252.94;5003698;28;20026;-75
2022/03/02 01:04:55;;;;;;;28.75;13.13;;;;;;;-1.76;63.83;94246.47;5003656;28;20030;-75
2022/03/02 01:07:21;;;;;;;28.92;13.43;;;;;;;-1.88;63.78;94246.47;5003564;28;20061;-75
2022/03/02 01:09:46;;;;;;;29.45;12.40;;;;;;;-1.98;63.43;94251.44;5018072;28;20038;-74
2022/03/02 01:12:12;;;;;;;16.38;9.02;;;;;;;-2.08;63.00;94252.78;5003553;28;20031;-75
2022/03/02 01:14:38;;;;;;;17.98;8.52;;;;;;;-2.12;62.92;94240.41;5003433;28;20064;-75
2022/03/02 01:17:03;;;;;;;15.38;8.15;;;;;;;-2.19;61.88;94244.97;5003452;28;20026;-74
2022/03/02 01:19:29;;;;;;;13.63;7.05;;;;;;;-2.20;62.41;94240.75;5003409;28;20022;-74
2022/03/02 01:21:55;;;;;;;16.77;7.60;;;;;;;-2.20;62.63;94238.13;5003448;28;20018;-75
2022/03/02 01:24:20;;;;;;;14.82;8.50;;;;;;;-2.30;62.13;94230.84;5003599;28;20021;-75
2022/03/02 01:26:46;;;;;;;14.57;7.15;;;;;;;-2.30;62.12;94236.06;5003320;28;20084;-75
2022/03/02 01:29:12;;;;;;;16.58;6.50;;;;;;;-2.31;61.34;94231.88;5003277;28;20102;-76
2022/03/02 01:31:38;;;;;;;14.60;7.13;;;;;;;-2.32;61.95;94225.03;5003441;28;20030;-76
2022/03/02 01:34:03;;;;;;;13.10;6.95;;;;;;;-2.34;61.61;94221.84;5003181;28;20208;-76
2022/03/02 01:36:29;;;;;;;12.43;6.85;;;;;;;-2.30;61.57;94228.22;5003298;28;20053;-75
2022/03/02 01:38:55;;;;;;;13.38;6.80;;;;;;;-2.33;61.44;94234.69;5003315;28;20064;-76
2022/03/02 01:41:22;;;;;;;14.13;7.18;;;;;;;-2.30;61.40;94223.81;5002868;28;20215;-76
2022/03/02 01:43:49;;;;;;;14.98;7.03;;;;;;;-2.31;60.90;94217.00;5003238;28;20037;-76
2022/03/02 01:46:16;;;;;;;14.35;7.28;;;;;;;-2.26;61.41;94206.69;5003093;28;20022;-76
2022/03/02 01:48:42;;;;;;;13.20;6.95;;;;;;;-2.22;61.04;94215.66;5003070;28;20046;-76
2022/03/02 01:51:08;;;;;;;16.48;7.53;;;;;;;-2.11;61.11;94210.69;5003168;28;20114;-76
2022/03/02 01:53:34;;;;;;;14.98;7.82;;;;;;;-2.04;61.68;94206.13;5002824;28;20340;-76
2022/03/02 01:56:00;;;;;;;13.68;7.18;;;;;;;-1.96;61.10;94205.78;5002990;28;20038;-76
2022/03/02 01:58:27;;;;;;;14.60;7.05;;;;;;;-1.88;61.38;94212.50;5003306;28;20093;-76
2022/03/02 02:00:53;;;;;;;15.10;7.25;;;;;;;-1.84;60.17;94200.56;5018444;28;20038;-76
2022/03/02 02:03:19;;;;;;;9.88;6.05;;;;;;;-1.85;59.51;94209.44;5001708;28;20097;-76
2022/03/02 02:05:44;;;;;;;14.32;6.18;;;;;;;-1.89;59.01;94197.88;5002929;28;20097;-76
2022/03/02 02:08:10;;;;;;;12.27;5.95;;;;;;;-1.96;59.08;94199.78;5002894;28;20034;-76
2022/03/02 02:10:35;;;;;;;13.15;5.65;;;;;;;-1.95;59.29;94199.56;5003082;28;20097;-76
2022/03/02 02:13:02;;;;;;;12.63;6.55;;;;;;;-1.94;59.80;94201.13;5003085;28;20034;-76
2022/03/02 02:15:28;;;;;;;13.32;5.28;;;;;;;-1.88;59.60;94183.75;5002846;28;20037;-77
2022/03/02 02:17:53;;;;;;;9.73;5.15;;;;;;;-1.85;59.53;94189.34;5003061;28;20026;-77
2022/03/02 02:20:19;;;;;;;9.60;4.80;;;;;;;-1.77;58.84;94185.59;5005153;28;20026;-77
2022/03/02 02:22:46;;;;;;;8.15;4.82;;;;;;;-1.76;57.96;94181.16;5006828;28;20093;-77
2022/03/02 02:25:13;;;;;;;8.68;5.07;;;;;;;-1.87;57.39;94190.59;5006543;28;20022;-75
2022/03/02 02:27:44;;;;;;;6.85;3.80;;;;;;;-2.02;58.08;94191.03;5006494;28;20030;-75
2022/03/02 02:30:11;;;;;;;6.55;3.55;;;;;;;-2.12;57.78;94185.56;5006718;28;20178;-75
2022/03/02 02:32:37;;;;;;;9.60;4.30;;;;;;;-2.22;58.33;94193.94;5006391;28;20034;-76
2022/03/02 02:35:03;;;;;;;7.15;4.30;;;;;;;-2.32;58.37;94184.09;5006447;28;20089;-76
2022/03/02 02:37:28;;;;;;;8.30;4.03;;;;;;;-2.32;58.72;94191.09;5006455;28;20321;-74
2022/03/02 02:39:59;;;;;;;6.88;3.90;;;;;;;-2.44;58.49;94186.66;5006442;28;20093;-74
2022/03/02 02:42:24;;;;;;;5.95;3.80;;;;;;;-2.47;58.65;94181.88;5006582;28;20026;-74
2022/03/02 02:44:50;;;;;;;8.60;3.83;;;;;;;-2.50;58.84;94184.16;5006353;28;20332;-74
2022/03/02 02:47:16;;;;;;;5.63;3.83;;;;;;;-2.60;59.15;94186.53;5006259;28;20072;-74
2022/03/02 02:49:41;;;;;;;8.02;3.80;;;;;;;-2.59;59.21;94185.47;5006185;28;20037;-75
2022/03/02 02:52:07;;;;;;;11.77;4.07;;;;;;;-2.64;59.38;94188.78;5005994;28;20031;-75
2022/03/02 02:54:32;;;;;;;6.93;3.47;;;;;;;-2.64;59.41;94186.16;5006216;28;20735;-75
2022/03/02 02:56:58;;;;;;;9.75;4.03;;;;;;;-2.65;59.77;94184.56;5006259;28;20026;-75
2022/03/02 02:59:24;;;;;;;6.28;3.72;;;;;;;-2.64;59.79;94180.94;5006126;28;20101;-75
2022/03/02 03:01:50;;;;;;;8.52;4.22;;;;;;;-2.63;59.85;94182.50;5005959;28;20038;-75
2022/03/02 03:04:15;;;;;;;7.28;4.35;;;;;;;-2.60;60.01;94189.13;5005965;28;20034;-76
2022/03/02 03:06:41;;;;;;;8.43;4.55;;;;;;;-2.63;59.78;94182.50;5005885;28;20038;-76
2022/03/02 03:09:07;;;;;;;8.50;4.32;;;;;;;-2.59;60.05;94182.88;5005841;28;20089;-76
2022/03/02 03:11:32;;;;;;;7.70;4.53;;;;;;;-2.64;60.15;94186.16;5005813;28;20026;-76
2022/03/02 03:13:58;;;;;;;7.28;4.63;;;;;;;-2.76;60.59;94177.50;5005726;28;20031;-75
2022/03/02 03:16:24;;;;;;;6.22;4.20;;;;;;;-2.82;60.91;94184.41;5021116;28;20209;-75
2022/03/02 03:18:50;;;;;;;7.38;4.25;;;;;;;-2.80;61.02;94177.16;5005877;28;20260;-76
2022/03/02 03:21:15;;;;;;;10.88;4.93;;;;;;;-2.84;61.00;94192.44;5005782;28;20030;-77
2022/03/02 03:23:41;;;;;;;8.75;4.93;;;;;;;-2.86;61.58;94184.03;5005565;28;20033;-78
2022/03/02 03:26:06;;;;;;;10.90;4.43;;;;;;;-2.93;61.65;94187.75;5005638;28;20105;-78
2022/03/02 03:28:32;;;;;;;8.18;4.55;;;;;;;-2.92;62.38;94184.13;5005560;28;20140;-77
2022/03/02 03:30:57;;;;;;;7.43;4.70;;;;;;;-3.00;62.17;94180.00;5004555;28;20065;-77
2022/03/02 03:33:23;;;;;;;7.65;4.07;;;;;;;-2.94;62.15;94175.72;5005637;28;20336;-77
2022/03/02 03:35:49;;;;;;;11.95;4.85;;;;;;;-2.93;62.31;94182.53;5005415;28;20376;-77
2022/03/02 03:38:15;;;;;;;7.50;4.22;;;;;;;-2.93;62.54;94178.13;5004286;28;20325;-77
2022/03/02 03:40:40;;;;;;;9.52;5.25;;;;;;;-2.89;62.95;94183.69;5004975;28;20046;-76
2022/03/02 03:43:06;;;;;;;9.73;4.93;;;;;;;-2.86;63.36;94191.06;5003995;28;20033;-77
2022/03/02 03:45:31;;;;;;;10.05;4.85;;;;;;;-2.75;63.43;94179.06;5005157;28;20018;-76
2022/03/02 03:47:57;;;;;;;8.25;4.07;;;;;;;-2.74;63.59;94180.69;5005363;28;20030;-77
2022/03/02 03:50:23;;;;;;;8.93;4.03;;;;;;;-2.66;65.30;94181.16;5005145;28;20316;-77
2022/03/02 03:52:49;;;;;;;12.38;4.43;;;;;;;-2.59;66.09;94172.44;5005076;28;20033;-77
2022/03/02 03:55:15;;;;;;;10.38;4.40;;;;;;;-2.52;65.95;94167.94;5005249;28;20364;-76
2022/03/02 03:57:42;;;;;;;10.90;5.28;;;;;;;-2.47;66.00;94173.25;5005148;28;20026;-76
2022/03/02 04:00:11;;;;;;;9.23;4.57;;;;;;;-2.43;66.67;94166.56;5004944;28;20022;-76
2022/03/02 04:02:37;;;;;;;9.20;4.13;;;;;;;-2.35;67.47;94173.28;5004826;28;20093;-76
2022/03/02 04:05:02;;;;;;;9.65;4.38;;;;;;;-2.32;66.55;94168.41;5004840;28;20081;-76
2022/03/02 04:07:29;;;;;;;10.35;4.63;;;;;;;-2.26;66.40;94170.13;5004912;28;20034;-76
2022/03/02 04:09:54;;;;;;;7.47;3.63;;;;;;;-2.23;66.33;94171.47;5004873;28;20030;-76
2022/03/02 04:12:20;;;;;;;9.68;5.18;;;;;;;-2.19;67.21;94167.41;5004826;28;20026;-77
2022/03/02 04:14:46;;;;;;;7.72;4.43;;;;;;;-2.15;66.72;94175.59;5004593;28;20042;-76
2022/03/02 04:17:11;;;;;;;9.70;5.30;;;;;;;-2.14;66.95;94170.13;5004486;28;20093;-75
2022/03/02 04:19:37;;;;;;;10.43;5.30;;;;;;;-2.12;66.88;94167.28;5004593;28;20018;-76
2022/03/02 04:22:04;;;;;;;11.43;5.68;;;;;;;-2.17;66.84;94180.25;5004727;28;20022;-76
2022/03/02 04:24:29;;;;;;;8.82;5.00;;;;;;;-2.25;66.75;94176.91;5004765;28;20022;-76
2022/03/02 04:26:55;;;;;;;9.73;4.85;;;;;;;-2.32;67.26;94172.81;5004324;28;20313;-76
2022/03/02 04:29:21;;;;;;;13.13;6.07;;;;;;;-2.26;67.47;94177.97;5004407;28;20030;-75
2022/03/02 04:31:46;;;;;;;11.13;5.30;;;;;;;-2.26;67.05;94172.72;5004366;28;20097;-76
2022/03/02 04:34:12;;;;;;;15.70;6.40;;;;;;;-2.19;67.39;94171.84;5004310;28;20018;-75
2022/03/02 04:36:37;;;;;;;10.07;5.47;;;;;;;-2.18;67.10;94170.78;5002883;28;20018;-75
2022/03/02 04:39:03;;;;;;;10.00;5.82;;;;;;;-2.16;67.76;94173.97;5004198;28;20109;-75
2022/03/02 04:41:28;;;;;;;11.82;5.32;;;;;;;-2.14;67.37;94171.94;5004113;28;20340;-75
2022/03/02 04:43:54;;;;;;;9.82;5.57;;;;;;;-2.05;67.49;94171.38;5003841;28;20018;-75
2022/03/02 04:46:19;;;;;;;9.32;4.93;;;;;;;-2.04;67.07;94161.72;5003915;28;20018;-75
2022/03/02 04:48:45;;;;;;;7.97;4.30;;;;;;;-2.13;67.65;94166.50;5004073;28;20018;-75
2022/03/02 04:51:11;;;;;;;6.13;3.22;;;;;;;-2.03;67.69;94165.94;5004086;28;20022;-77
2022/03/02 04:53:36;;;;;;;8.85;4.50;;;;;;;-1.95;68.14;94156.97;5004134;28;20069;-77
2022/03/02 04:56:02;;;;;;;8.02;4.28;;;;;;;-1.99;67.86;94161.84;5003949;28;20018;-77
2022/03/02 04:58:27;;;;;;;10.68;4.70;;;;;;;-2.00;68.07;94162.84;5003798;28;20028;-77
2022/03/02 05:00:53;;;;;;;8.73;4.28;;;;;;;-2.03;68.24;94166.72;5003933;28;20028;-76
2022/03/02 05:03:18;;;;;;;9.05;4.32;;;;;;;-2.06;68.59;94163.75;5003891;28;20345;-77
2022/03/02 05:05:44;;;;;;;13.02;5.00;;;;;;;-2.03;68.88;94160.72;5003725;28;20050;-77
2022/03/02 05:08:09;;;;;;;7.28;3.90;;;;;;;-2.08;68.87;94160.59;5003772;28;20030;-78
2022/03/02 05:10:35;;;;;;;9.10;4.25;;;;;;;-2.11;69.20;94156.63;5002422;28;20232;-77
2022/03/02 05:13:02;;;;;;;7.90;4.70;;;;;;;-2.09;69.60;94161.63;5003713;28;20033;-77
2022/03/02 05:15:27;;;;;;;9.63;4.88;;;;;;;-2.15;69.54;94154.69;5003542;28;20074;-77
2022/03/02 05:17:53;;;;;;;9.18;4.93;;;;;;;-2.13;69.88;94155.25;5003343;28;20370;-78
2022/03/02 05:20:20;;;;;;;10.65;5.43;;;;;;;-2.19;70.07;94158.78;5003401;28;20109;-78
2022/03/02 05:22:46;;;;;;;9.20;5.28;;;;;;;-2.23;70.90;94150.59;5003162;28;20026;-78
2022/03/02 05:25:13;;;;;;;11.75;6.80;;;;;;;-2.29;71.12;94149.66;5003437;28;20084;-78
2022/03/02 05:27:39;;;;;;;9.50;5.88;;;;;;;-2.24;71.45;94160.25;5003345;28;20372;-78
2022/03/02 05:30:06;;;;;;;12.00;6.05;;;;;;;-2.25;71.66;94158.66;5003212;28;20067;-78
2022/03/02 05:32:31;;;;;;;10.02;5.72;;;;;;;-2.31;72.40;94154.31;5003099;28;20022;-78
2022/03/02 05:34:57;;;;;;;12.02;6.95;;;;;;;-2.31;72.45;94162.16;5003169;28;20026;-78
2022/03/02 05:37:22;;;;;;;11.55;6.75;;;;;;;-2.29;72.07;94162.72;5003228;28;20049;-77
2022/03/02 05:39:48;;;;;;;19.90;6.68;;;;;;;-2.18;71.93;94162.97;5003176;28;20030;-77
2022/03/02 05:42:14;;;;;;;15.65;6.15;;;;;;;-2.16;71.44;94163.53;5003112;28;20073;-76
2022/03/02 05:44:40;;;;;;;9.98;5.70;;;;;;;-2.18;71.28;94170.78;5003048;28;20026;-77
2022/03/02 05:47:05;;;;;;;11.10;5.70;;;;;;;-2.26;71.20;94162.28;5003109;28;20030;-77
2022/03/02 05:49:31;;;;;;;14.45;6.43;;;;;;;-2.18;71.43;94168.19;5002869;28;20022;-77
2022/03/02 05:51:57;;;;;;;12.80;6.57;;;;;;;-2.18;71.54;94157.75;5002931;28;20026;-77
2022/03/02 05:54:22;;;;;;;14.40;7.47;;;;;;;-2.17;71.08;94161.97;5002291;28;20027;-77
2022/03/02 05:56:47;;;;;;;11.98;6.32;;;;;;;-2.10;71.54;94155.56;5006983;28;20022;-76
2022/03/02 05:59:14;;;;;;;11.40;5.85;;;;;;;-2.06;71.28;94161.16;5006902;28;20025;-76
2022/03/02 06:01:41;;;;;;;12.10;6.32;;;;;;;-2.02;70.87;94173.53;5007094;28;20084;-75
2022/03/02 06:04:07;;;;;;;12.57;6.00;;;;;;;-1.95;70.20;94165.59;5006863;28;20325;-76
2022/03/02 06:06:34;;;;;;;12.15;6.03;;;;;;;-1.91;70.72;94161.50;5007233;28;20042;-77
2022/03/02 06:09:00;;;;;;;11.73;6.43;;;;;;;-1.85;70.05;94168.44;5006953;28;20022;-76
2022/03/02 06:11:26;;;;;;;11.52;6.53;;;;;;;-1.72;69.83;94166.59;5006695;28;20072;-76
2022/03/02 06:13:52;;;;;;;12.82;6.95;;;;;;;-1.72;69.65;94171.84;5006568;28;20101;-75
2022/03/02 06:16:18;;;;;;;11.43;6.40;;;;;;;-1.66;69.54;94170.91;5006730;28;20022;-76
2022/03/02 06:18:43;;;;;;;11.07;6.20;;;;;;;-1.63;69.03;94171.25;5006502;28;20022;-76
2022/03/02 06:21:14;;;;;;;16.75;6.47;;;;;;;-1.63;69.38;94165.22;5006728;28;20030;-74
2022/03/02 06:23:40;;;;;;;13.10;7.30;;;;;;;-1.51;69.10;94171.22;5005692;28;20022;-76
2022/03/02 06:26:07;;;;;;;14.27;6.53;;;;;;;-1.51;69.29;94167.81;5006500;28;20029;-76
2022/03/02 06:28:33;;;;;;;17.02;7.43;;;;;;;-1.39;68.39;94157.34;5006640;28;20046;-76
2022/03/02 06:31:01;;;;;;;14.52;6.53;;;;;;;-1.45;68.92;94164.28;5006750;28;20062;-76
2022/03/02 06:33:27;;;;;;;23.50;8.13;;;;;;;-1.52;69.25;94161.81;5006385;28;20397;-76
2022/03/02 06:35:52;;;;;;;25.73;8.13;;;;;;;-1.43;69.30;94164.84;5006496;28;20026;-77
2022/03/02 06:38:19;;;;;;;16.83;8.35;;;;;;;-1.29;68.68;94160.16;5006510;28;20217;-77
2022/03/02 06:40:56;;;;;;;18.42;7.63;;;;;;;-1.28;68.45;94159.94;5006020;28;20050;-79
2022/03/02 06:43:24;;;;;;;14.25;7.28;;;;;;;-1.20;68.48;94148.31;5006304;28;20037;-79
2022/03/02 06:46:19;;;;;;;14.00;7.50;;;;;;;-1.09;69.38;94150.09;5006437;28;20022;-69
2022/03/02 06:49:03;;;;;;;16.77;7.35;;;;;;;-1.01;68.04;94151.53;5001081;28;20286;-71
2022/03/02 06:51:30;;;;;;;22.02;8.35;;;;;;;-0.93;68.24;94151.16;5006677;28;20073;-70
2022/03/02 06:53:57;;;;;;;22.42;8.15;;;;;;;-0.84;67.78;94151.59;5006253;28;20045;-71
2022/03/02 06:56:27;;;;;;;13.15;7.05;;;;;;;-0.91;66.84;94151.72;5006141;28;20029;-75
2022/03/02 06:58:55;;;;;;;12.70;7.40;;;;;;;-0.90;66.74;94152.53;5005981;28;20317;-75
2022/03/02 07:01:31;;;;;;;14.65;7.80;;;;;;;-0.89;66.45;94151.50;5021240;28;20135;-75
2022/03/02 07:03:59;;;;;;;24.13;8.77;;;;;;;-0.85;66.64;94150.00;5006157;28;20045;-75
2022/03/02 07:06:27;;;;;;;16.15;7.95;;;;;;;-0.97;66.66;94151.88;5006003;28;20194;-75
2022/03/02 07:08:54;;;;;;;32.00;11.60;;;;;;;-0.87;66.89;94142.38;5006035;28;20045;-75
2022/03/02 07:11:20;;;;;;;19.33;9.52;;;;;;;-0.79;65.94;94143.03;5005750;28;20030;-75
2022/03/02 07:13:47;;;;;;;20.23;9.65;;;;;;;-0.81;65.85;94132.81;5020883;28;20053;-75
2022/03/02 07:16:13;;;;;;;18.52;9.27;;;;;;;-0.79;65.78;94135.16;5005906;28;20041;-74
2022/03/02 07:18:40;;;;;;;24.02;9.23;;;;;;;-0.83;65.78;94127.00;5005715;28;20026;-73
2022/03/02 07:21:11;;;;;;;18.98;8.05;;;;;;;-0.98;65.66;94127.50;5004440;28;20072;-75
2022/03/02 07:23:46;;;;;;;20.83;8.88;;;;;;;-0.89;66.12;94127.94;5005655;28;20236;-74
2022/03/02 07:26:12;;;;;;;17.42;8.07;;;;;;;-0.85;65.38;94122.00;5005525;28;20050;-74
2022/03/02 07:28:39;;;;;;;14.10;6.95;;;;;;;-0.88;65.04;94126.91;5005160;28;20037;-74
2022/03/02 07:31:08;;;;;;;17.88;8.35;;;;;;;-0.89;65.08;94123.50;5005605;28;20029;-76
2022/03/02 07:33:37;;;;;;;16.63;8.20;;;;;;;-0.94;65.90;94140.94;5004789;28;20252;-76
2022/03/02 07:36:03;;;;;;;17.15;9.63;;;;;;;-0.88;65.18;94124.28;5003249;28;20041;-75
2022/03/02 07:38:30;;;;;;;22.13;10.27;;;;;;;-0.74;65.80;94114.34;5003309;28;20022;-75
2022/03/02 07:40:56;;;;;;;23.27;9.52;;;;;;;-0.69;65.81;94115.22;5003534;28;20120;-75
2022/03/02 07:43:22;;;;;;;20.35;8.77;;;;;;;-0.71;65.68;94125.13;5003772;28;20045;-75
2022/03/02 07:45:48;;;;;;;16.30;7.82;;;;;;;-0.59;64.68;94119.03;5003495;28;20233;-75
2022/03/02 07:48:14;;;;;;;26.52;10.07;;;;;;;-0.63;65.30;94114.28;5004792;28;20023;-74
2022/03/02 07:50:40;;;;;;;17.40;8.98;;;;;;;-0.61;64.46;94106.97;5005153;28;20077;-75
2022/03/02 07:53:07;;;;;;;22.92;10.70;;;;;;;-0.62;65.61;94102.75;5005338;28;20085;-75
2022/03/02 07:55:34;;;;;;;23.88;11.80;;;;;;;-0.58;64.87;94115.38;5004967;28;20023;-75
2022/03/02 07:58:03;;;;;;;25.60;10.70;;;;;;;-0.50;64.89;94117.59;5005153;28;20022;-80
2022/03/02 08:00:29;;;;;;;20.10;8.98;;;;;;;-0.47;64.46;94120.56;5003737;28;20084;-76
2022/03/02 08:02:58;;;;;;;26.65;11.90;;;;;;;-0.41;64.67;94113.56;5004808;28;20283;-76
2022/03/02 08:05:25;;;;;;;21.00;8.35;;;;;;;-0.45;63.33;94117.69;5004738;28;20019;-75
2022/03/02 08:07:51;;;;;;;21.83;8.98;;;;;;;-0.55;64.10;94118.34;5004606;28;20026;-75
2022/03/02 08:10:18;;;;;;;21.88;9.93;;;;;;;-0.54;64.98;94111.25;5004744;28;20028;-75
2022/03/02 08:12:44;;;;;;;23.08;10.07;;;;;;;-0.47;64.42;94109.25;5004545;28;20216;-75
2022/03/02 08:15:10;;;;;;;20.45;10.57;;;;;;;-0.44;64.41;94108.81;5004664;28;20060;-75
2022/03/02 08:17:36;;;;;;;21.45;10.40;;;;;;;-0.49;65.86;94108.72;5003178;28;20033;-75
2022/03/02 08:20:02;;;;;;;35.88;12.07;;;;;;;-0.45;64.60;94107.19;5004779;28;20109;-75
2022/03/02 08:22:30;;;;;;;20.70;10.63;;;;;;;-0.48;64.96;94110.31;5004448;28;20033;-74
2022/03/02 08:25:12;;;;;;;25.42;11.93;;;;;;;-0.62;64.79;94108.00;5004401;28;20092;-74
2022/03/02 08:27:39;;;;;;;;;;;;;;;-0.51;65.81;94105.53;5004791;28;20224;-75
2022/03/02 08:30:06;;;;;;;24.23;10.32;;;;;;;-0.57;65.56;94104.69;5004561;28;19909;-74
2022/03/02 08:32:37;;;;;;;18.60;8.43;;;;;;;-0.56;65.10;94108.09;5004412;28;20037;-75
2022/03/02 08:35:04;;;;;;;20.75;10.43;;;;;;;-0.61;65.38;94106.19;5004282;28;20105;-75
2022/03/02 08:37:32;;;;;;;25.00;10.90;;;;;;;-0.54;64.88;94098.16;5004075;28;20233;-74
2022/03/02 08:39:59;;;;;;;24.55;12.23;;;;;;;-0.52;65.34;94088.25;5003893;28;20030;-75
2022/03/02 08:42:25;;;;;;;28.02;11.55;;;;;;;-0.47;65.37;94093.56;5004200;28;20022;-76
2022/03/02 08:44:50;;;;;;;23.42;11.88;;;;;;;-0.46;65.85;94090.69;5002873;28;20256;-75
2022/03/02 08:47:16;;;;;;;27.60;12.02;;;;;;;-0.32;64.97;94079.91;5002588;28;20048;-75
2022/03/02 08:49:41;;;;;;;34.25;13.50;;;;;;;-0.18;64.34;94069.88;5003913;28;20034;-75
2022/03/02 08:52:08;;;;;;;33.80;14.60;;;;;;;-0.03;64.11;94078.75;5003724;28;20067;-74
2022/03/02 08:54:48;;;;;;;25.27;11.05;;;;;;;0.06;63.80;94068.66;5019195;28;20033;-74
2022/03/02 08:57:15;;;;;;;25.00;12.30;;;;;;;0.15;62.82;94069.03;5003726;28;20026;-75
2022/03/02 08:59:41;;;;;;;25.08;11.30;;;;;;;0.18;62.87;94073.78;5002665;28;20030;-74
2022/03/02 09:02:09;;;;;;;18.45;10.07;;;;;;;0.15;62.49;94066.41;5003754;28;20049;-76
2022/03/02 09:04:37;;;;;;;23.48;12.75;;;;;;;0.10;62.43;94064.53;5003968;28;20026;-75
2022/03/02 09:07:05;;;;;;;24.45;10.85;;;;;;;0.16;62.59;94071.41;5003641;28;20030;-74
2022/03/02 09:09:42;;;;;;;;;;;;;;;;;;;;;
2022/03/02 09:12:59;;;;;;;;;;;;;;;;;;;;;
2022/03/02 09:16:39;;;;;;;18.42;8.40;;;;;;;0.11;61.88;94055.63;4943072;29;20075;-77
2022/03/02 09:19:03;;;;;;;21.85;10.98;;;;;;;0.05;61.95;94058.41;4959801;28;20213;-74
2022/03/02 09:21:30;;;;;;;23.27;11.85;;;;;;;0.27;63.10;94058.44;5003774;28;20064;-75
2022/03/02 09:23:56;;;;;;;29.30;12.70;;;;;;;0.42;61.54;94049.94;5003508;28;20026;-74
2022/03/02 09:26:22;;;;;;;29.10;12.50;;;;;;;0.47;60.81;94053.44;5003619;28;20339;-74
2022/03/02 09:28:51;;;;;;;20.38;11.07;;;;;;;0.48;59.66;94047.13;5002748;28;20031;-74
2022/03/02 09:31:19;;;;;;;25.58;11.20;;;;;;;0.43;60.39;94054.97;5003230;28;20029;-75
2022/03/02 09:33:48;;;;;;;23.95;11.10;;;;;;;0.44;60.37;94045.25;5003488;28;20033;-75
2022/03/02 09:36:20;;;;;;;23.17;11.52;;;;;;;0.49;61.05;94050.53;5003352;28;20068;-75
2022/03/02 09:38:47;;;;;;;27.17;11.85;;;;;;;0.52;61.43;94031.72;5003255;28;20044;-76
2022/03/02 09:41:25;;;;;;;23.20;11.70;;;;;;;0.67;61.39;94036.31;5003418;28;20053;-76
2022/03/02 09:43:56;;;;;;;25.38;11.77;;;;;;;0.78;60.78;94035.41;5003314;28;20097;-75
2022/03/02 09:46:30;;;;;;;24.80;13.32;;;;;;;0.91;60.59;94029.75;5003234;28;20025;-76
2022/03/02 09:49:01;;;;;;;32.10;12.38;;;;;;;0.94;59.17;94029.25;5003185;28;20134;-75
2022/03/02 09:51:31;;;;;;;24.50;12.10;;;;;;;1.04;60.85;94019.88;5003328;28;20026;-75
2022/03/02 09:53:58;;;;;;;22.60;11.07;;;;;;;0.96;59.46;94031.63;5002999;28;20073;-75
2022/03/02 09:56:25;;;;;;;19.17;10.35;;;;;;;0.90;59.67;94024.75;5003120;28;20076;-75
2022/03/02 09:58:52;;;;;;;22.30;10.32;;;;;;;1.02;58.26;94029.81;5003208;28;20292;-74
2022/03/02 10:01:23;;;;;;;19.85;10.77;;;;;;;1.11;59.80;94021.25;5002716;28;20129;-75
2022/03/02 10:03:50;;;;;;;23.13;11.35;;;;;;;1.09;59.45;94020.72;5002802;28;20015;-74
2022/03/02 10:06:21;;;;;;;23.17;12.77;;;;;;;1.12;59.55;94012.34;5003100;28;20018;-75
2022/03/02 10:08:52;;;;;;;26.05;11.43;;;;;;;1.24;59.89;94009.53;5002877;28;20092;-76
2022/03/02 10:11:25;;;;;;;26.25;12.68;;;;;;;1.32;59.88;94008.28;5003031;28;20042;-74
2022/03/02 10:13:56;;;;;;;26.80;11.75;;;;;;;1.33;59.60;94015.94;5002926;28;20026;-76
2022/03/02 10:16:25;;;;;;;25.50;12.75;;;;;;;1.40;59.68;93997.31;5003148;28;20046;-76
2022/03/02 10:19:00;;;;;;;25.27;13.15;;;;;;;1.34;59.56;94000.94;5002931;28;20232;-75
2022/03/02 10:21:31;;;;;;;27.10;13.68;;;;;;;1.20;60.18;94000.56;5002873;28;20057;-76
2022/03/02 10:24:02;;;;;;;32.05;14.65;;;;;;;1.21;59.93;93991.66;5002792;28;20032;-75
2022/03/02 10:26:34;;;;;;;30.52;14.68;;;;;;;1.22;59.29;94000.34;5002983;28;20073;-75
2022/03/02 10:29:31;;;;;;;27.08;12.27;;;;;;;1.19;59.22;93999.00;5003012;28;20018;-75
2022/03/02 10:32:13;;;;;;;28.98;13.07;;;;;;;1.12;58.79;93988.72;5002772;28;20046;-74
2022/03/02 10:34:48;;;;;;;29.02;13.23;;;;;;;1.10;60.10;93990.00;5002926;28;20027;-74
2022/03/02 10:37:38;;;;;;;29.85;13.43;;;;;;;1.07;58.69;93986.03;5002780;28;20069;-74
2022/03/02 10:40:20;;;;;;;27.23;14.15;;;;;;;0.99;60.14;93976.78;4997582;28;20288;-76
2022/03/02 10:42:57;;;;;;;30.20;13.68;;;;;;;1.15;59.54;93967.22;5005313;28;20077;-75
2022/03/02 10:45:35;;;;;;;25.83;14.15;;;;;;;1.29;58.98;93967.56;5006366;28;20049;-76
2022/03/02 10:48:39;;;;;;;25.13;10.65;;;;;;;1.29;56.77;93957.06;5006385;28;20061;-74
2022/03/02 10:51:09;;;;;;;20.63;10.95;;;;;;;1.38;56.00;93955.56;5006488;28;20025;-74
2022/03/02 10:53:40;;;;;;;23.50;10.93;;;;;;;1.30;56.36;93958.63;5006395;28;20036;-77
2022/03/02 10:56:08;;;;;;;18.05;9.90;;;;;;;1.35;56.82;93947.41;5006380;28;20022;-80
2022/03/02 10:58:34;;;;;;;22.92;12.07;;;;;;;1.47;55.30;93947.22;5006005;28;20019;-79
2022/03/02 11:01:00;;;;;;;23.05;11.25;;;;;;;1.38;54.74;93949.50;5006175;28;20029;-82
2022/03/02 11:03:35;;;;;;;16.73;9.10;;;;;;;1.49;55.11;93939.88;5004842;28;20041;-80
2022/03/02 11:06:03;;;;;;;30.75;13.35;;;;;;;1.56;55.38;93941.22;5006159;28;20629;-79
2022/03/02 11:08:34;;;;;;;22.38;10.80;;;;;;;1.54;54.73;93930.16;5005860;28;20026;-79
2022/03/02 11:11:00;;;;;;;24.33;12.43;;;;;;;1.53;55.20;93925.97;5005667;28;20032;-79
2022/03/02 11:13:26;;;;;;;25.38;12.93;;;;;;;1.54;54.55;93922.28;5005738;28;20026;-79
2022/03/02 11:16:02;;;;;;;26.13;10.20;;;;;;;1.49;54.56;93924.13;5005625;28;20026;-79
2022/03/02 11:18:36;;;;;;;23.83;11.25;;;;;;;1.40;54.50;93915.91;5005830;28;20236;-81
2022/03/02 11:21:09;;;;;;;25.95;10.40;;;;;;;1.42;54.67;93913.81;5005803;28;20026;-78
2022/03/02 11:23:47;;;;;;;22.70;10.55;;;;;;;1.49;53.26;93910.97;5005636;28;20053;-79
2022/03/02 11:26:28;;;;;;;19.25;8.57;;;;;;;1.49;53.21;93900.47;5005533;28;20073;-80
2022/03/02 11:28:57;;;;;;;21.40;9.95;;;;;;;1.54;54.14;93900.47;5005543;28;20105;-83
2022/03/02 11:31:31;;;;;;;17.95;9.90;;;;;;;1.64;53.29;93900.53;5005569;28;20023;-79
2022/03/02 11:34:12;;;;;;;24.95;10.70;;;;;;;1.69;53.75;93887.44;5005468;28;20105;-79